• Join FlightAware (Why Join?)
  • Login
  • US Flag 
04:08AM EDT


 

Airport Tracker/Info


-or-


 

Live Flight TrackerFlight Track Log ✈ N449ND ✈ 13-Feb-2014 ✈ KFPR - KAPF

Flight Track Log - Related Links

Times and Time Zones

All times are in EST time to prevent confusion due to time zone crossing. See the N449ND flight status page for this flight to view local times or setup timezone preferences in your user account.

Time Position Orientation Groundspeed Altitude Reporting Facility
EST Latitude Longitude Course Direction KTS MPH feet Rate Location/Type
07:01PM 27.4978 -80.3781 223° Southwest 90 104 400  Level Miami Center
07:02PM 27.4271 -80.4473 223° Southwest  Level Estimated
07:02PM 27.4950 -80.3992 262° West 84 97 1,100  Level Miami Center
07:03PM 27.4130 -80.4622 223° Southwest  Level Estimated
07:03PM 27.4947 -80.4178 269° West 79 91 1,700  Level Miami Center
07:04PM 27.3989 -80.4771 223° Southwest  Level Estimated
07:04PM 27.4942 -80.4364 268° West 71 82 2,300  Level Miami Center
07:05PM 27.3848 -80.4920 223° Southwest  Level Estimated
07:05PM 27.4917 -80.4575 262° West 64 74 3,000  Level Miami Center
07:06PM 27.3707 -80.5069 223° Southwest  Level Estimated
07:06PM 27.4786 -80.4733 227° Southwest 69 79 3,500  Level Miami Center
07:07PM 27.4594 -80.4892 216° Southwest 86 99 3,900 300 Climbing Miami Center
07:08PM 27.4444 -80.5097 231° Southwest 96 110 4,100  Climbing Miami Center
07:09PM 27.4250 -80.5325 226° Southwest 96 110 4,000 -60 Descending Miami Center
07:10PM 27.4033 -80.5575 226° Southwest 101 116 4,000  Level Miami Center
07:11PM 27.3819 -80.5803 223° Southwest 101 116 4,000  Level Miami Center
07:12PM 27.3647 -80.6008 227° Southwest 101 116 4,100  Climbing Miami Center
07:13PM 27.3475 -80.6236 230° Southwest 106 122 4,000 -60 Descending Miami Center
07:14PM 27.3322 -80.6464 233° Southwest 106 122 4,000  Level Miami Center
07:15PM 27.3211 -80.6764 247° West 96 110 4,000  Level Miami Center
07:16PM 27.3119 -80.7042 250° West 91 105 4,000  Level Miami Center
07:17PM 27.3050 -80.7319 254° West 91 105 4,100  Climbing Miami Center
07:18PM 27.2939 -80.7575 244° Southwest 91 105 4,000 -60 Descending Miami Center
07:19PM 27.2869 -80.7828 253° West 91 105 4,000  Level Miami Center
07:20PM 27.2778 -80.8153 252° West 91 105 4,000  Level Miami Center
07:21PM 27.2686 -80.8406 248° West 91 105 4,000  Level Miami Center
07:22PM 27.2617 -80.8683 254° West 91 105 4,100  Climbing Miami Center
07:23PM 27.2525 -80.8939 248° West 91 105 4,000 -60 Descending Miami Center
07:24PM 27.2456 -80.9192 253° West 91 105 4,000  Level Miami Center
07:25PM 27.2322 -80.9492 243° Southwest 91 105 4,000  Level Miami Center
07:26PM 27.2169 -80.9742 236° Southwest 96 110 4,000  Level Miami Center
07:27PM 27.2036 -80.9994 239° Southwest 96 110 4,000  Level Miami Center
07:28PM 27.1864 -81.0222 230° Southwest 96 110 4,000  Level Miami Center
07:29PM 27.1586 -81.0375 206° Southwest 107 123 4,000  Level Miami Center
07:30PM 27.1331 -81.0575 215° Southwest 112 129 4,000  Level Miami Center
07:31PM 27.1156 -81.0803 229° Southwest 102 117 4,000  Level Miami Center
07:32PM 27.0964 -81.1006 223° Southwest 102 117 4,000  Level Miami Center
07:33PM 27.0728 -81.1231 220° Southwest 102 117 4,000  Level Miami Center
07:34PM 27.0511 -81.1503 228° Southwest 108 124 4,000  Level Miami Center
07:35PM 27.0294 -81.1728 223° Southwest 114 131 4,000  Level Miami Center
07:36PM 27.0100 -81.1953 226° Southwest 108 124 4,000  Level Miami Center
07:37PM 26.9883 -81.2178 223° Southwest 108 124 4,000  Level Miami Center
07:38PM 26.9669 -81.2403 223° Southwest 113 130 4,000  Level Miami Center
07:39PM 26.9475 -81.2628 226° Southwest 113 130 4,000  Level Miami Center
07:40PM 26.9281 -81.2856 226° Southwest 113 130 4,000  Level Miami Center
07:41PM 26.9042 -81.3078 220° Southwest 113 130 4,000  Level Miami Center
07:42PM 26.8869 -81.3306 230° Southwest 113 130 4,000  Level Miami Center
07:43PM 26.8653 -81.3528 222° Southwest 113 130 4,000  Level Miami Center
07:44PM 26.8458 -81.3708 220° Southwest 113 130 4,000  Level Miami Center
07:46PM 26.8190 -81.3866 208° Southwest  Level Estimated
07:53PM 26.6992 -81.4569 208° Southwest  Level Estimated
07:54PM 26.6821 -81.4669 208° Southwest  Level Estimated
07:55PM 26.6649 -81.4770 208° Southwest  Level Estimated
07:56PM 26.6478 -81.4870 208° Southwest  Level Estimated
07:57PM 26.6307 -81.4970 208° Southwest  Level Estimated
07:58PM 26.6136 -81.5070 208° Southwest  Level Estimated
07:59PM 26.5964 -81.5171 208° Southwest  Level Estimated
08:00PM 26.5793 -81.5271 208° Southwest  Level Estimated
08:01PM 26.5622 -81.5371 208° Southwest  Level Estimated
08:02PM 26.5450 -81.5471 208° Southwest  Level Estimated
08:03PM 26.5279 -81.5571 208° Southwest  Level Estimated
08:04PM 26.5108 -81.5671 208° Southwest  Level Estimated
08:05PM 26.4937 -81.5771 208° Southwest  Level Estimated
08:06PM 26.4765 -81.5871 208° Southwest  Level Estimated
08:07PM 26.4594 -81.5971 208° Southwest  Level Estimated
08:08PM 26.4423 -81.6071 208° Southwest  Level Estimated
08:09PM 26.4251 -81.6171 208° Southwest  Level Estimated
08:10PM 26.4080 -81.6271 208° Southwest  Level Estimated
08:11PM 26.3909 -81.6371 208° Southwest  Level Estimated
08:12PM 26.3737 -81.6470 208° Southwest  Level Estimated
08:13PM 26.3566 -81.6570 208° Southwest  Level Estimated
08:14PM 26.3395 -81.6670 208° Southwest  Level Estimated
08:15PM 26.3223 -81.6770 208° Southwest  Level Estimated
08:16PM 26.3052 -81.6869 208° Southwest  Level Estimated
08:17PM 26.2880 -81.6969 208° Southwest  Level Estimated
08:18PM 26.2709 -81.7069 208° Southwest  Level Estimated
08:19PM 26.2538 -81.7168 208° Southwest  Level Estimated
08:20PM 26.2366 -81.7268 208° Southwest  Level Estimated
08:21PM 26.2195 -81.7367 208° Southwest  Level Estimated
08:22PM 26.2023 -81.7467 208° Southwest  Level Estimated
08:23PM 26.1852 -81.7566 208° Southwest  Level Estimated
08:24PM 26.1681 -81.7666 208° Southwest  Level Estimated
08:25PM 26.1524 -81.7756 208° Southwest  Level Estimated
08:26PM 26.1524 -81.7756 36° Northeast  Level Estimated
08:27PM 26.1524 -81.7756 36° Northeast  Level Estimated
08:28PM 26.1524 -81.7756 36° Northeast  Level Estimated
08:29PM 26.1524 -81.7756 36° Northeast  Level Estimated
08:30PM 26.1524 -81.7756 36° Northeast  Level Estimated
08:31PM 26.1524 -81.7756 36° Northeast  Level Estimated
08:32PM 26.1524 -81.7756 36° Northeast  Level Estimated
08:33PM 26.1524 -81.7756 36° Northeast  Level Estimated
08:34PM 26.1524 -81.7756 36° Northeast  Level Estimated